sensor_id;sensor_type;location;lat;lon;timestamp;P1;durP1;ratioP1;P2;durP2;ratioP2
48363;SDS011;34170;54.364;18.582;2022-11-15T00:01:46;57.05;;;30.23;;
48363;SDS011;34170;54.364;18.582;2022-11-15T00:04:32;60.90;;;33.95;;
48363;SDS011;34170;54.364;18.582;2022-11-15T00:07:18;66.10;;;34.63;;
48363;SDS011;34170;54.364;18.582;2022-11-15T00:10:24;59.95;;;33.95;;
48363;SDS011;34170;54.364;18.582;2022-11-15T00:13:10;60.13;;;32.85;;
48363;SDS011;34170;54.364;18.582;2022-11-15T00:15:58;56.67;;;31.10;;
48363;SDS011;34170;54.364;18.582;2022-11-15T00:18:44;61.15;;;31.80;;
48363;SDS011;34170;54.364;18.582;2022-11-15T00:21:35;60.97;;;32.05;;
48363;SDS011;34170;54.364;18.582;2022-11-15T00:24:21;63.20;;;32.60;;
48363;SDS011;34170;54.364;18.582;2022-11-15T00:27:07;60.17;;;31.80;;
48363;SDS011;34170;54.364;18.582;2022-11-15T00:29:53;59.92;;;30.38;;
48363;SDS011;34170;54.364;18.582;2022-11-15T00:32:38;60.90;;;32.17;;
48363;SDS011;34170;54.364;18.582;2022-11-15T00:35:24;65.13;;;31.90;;
48363;SDS011;34170;54.364;18.582;2022-11-15T00:38:10;60.83;;;30.20;;
48363;SDS011;34170;54.364;18.582;2022-11-15T00:40:56;65.32;;;31.58;;
48363;SDS011;34170;54.364;18.582;2022-11-15T00:43:42;67.22;;;31.35;;
48363;SDS011;34170;54.364;18.582;2022-11-15T00:46:29;63.28;;;30.70;;
48363;SDS011;34170;54.364;18.582;2022-11-15T00:49:15;60.88;;;29.02;;
48363;SDS011;34170;54.364;18.582;2022-11-15T00:52:00;61.72;;;29.52;;
48363;SDS011;34170;54.364;18.582;2022-11-15T00:54:47;59.83;;;30.13;;
48363;SDS011;34170;54.364;18.582;2022-11-15T00:57:32;66.28;;;31.23;;
48363;SDS011;34170;54.364;18.582;2022-11-15T01:00:18;66.07;;;29.98;;
48363;SDS011;34170;54.364;18.582;2022-11-15T01:03:04;69.47;;;31.27;;
48363;SDS011;34170;54.364;18.582;2022-11-15T01:05:50;70.75;;;31.45;;
48363;SDS011;34170;54.364;18.582;2022-11-15T01:08:36;70.60;;;32.22;;
48363;SDS011;34170;54.364;18.582;2022-11-15T01:11:24;61.95;;;30.25;;
48363;SDS011;34170;54.364;18.582;2022-11-15T01:14:10;77.85;;;33.60;;
48363;SDS011;34170;54.364;18.582;2022-11-15T01:16:56;73.00;;;32.70;;
48363;SDS011;34170;54.364;18.582;2022-11-15T01:19:41;78.57;;;33.40;;
48363;SDS011;34170;54.364;18.582;2022-11-15T01:22:28;77.38;;;34.67;;
48363;SDS011;34170;54.364;18.582;2022-11-15T01:25:13;85.65;;;36.30;;
48363;SDS011;34170;54.364;18.582;2022-11-15T01:28:00;77.05;;;34.47;;
48363;SDS011;34170;54.364;18.582;2022-11-15T01:30:46;70.40;;;30.63;;
48363;SDS011;34170;54.364;18.582;2022-11-15T01:33:34;77.05;;;31.38;;
48363;SDS011;34170;54.364;18.582;2022-11-15T01:36:21;82.88;;;33.97;;
48363;SDS011;34170;54.364;18.582;2022-11-15T01:39:08;79.82;;;34.05;;
48363;SDS011;34170;54.364;18.582;2022-11-15T01:41:53;83.43;;;34.67;;
48363;SDS011;34170;54.364;18.582;2022-11-15T01:44:41;89.43;;;35.83;;
48363;SDS011;34170;54.364;18.582;2022-11-15T01:47:35;85.60;;;33.38;;
48363;SDS011;34170;54.364;18.582;2022-11-15T01:50:26;84.15;;;33.33;;
48363;SDS011;34170;54.364;18.582;2022-11-15T01:53:16;89.78;;;35.28;;
48363;SDS011;34170;54.364;18.582;2022-11-15T01:56:06;80.03;;;31.90;;
48363;SDS011;34170;54.364;18.582;2022-11-15T01:58:56;79.18;;;34.15;;
48363;SDS011;34170;54.364;18.582;2022-11-15T02:01:45;81.95;;;33.22;;
48363;SDS011;34170;54.364;18.582;2022-11-15T02:04:32;84.47;;;32.70;;
48363;SDS011;34170;54.364;18.582;2022-11-15T02:07:21;81.40;;;32.53;;
48363;SDS011;34170;54.364;18.582;2022-11-15T02:10:09;79.10;;;31.98;;
48363;SDS011;34170;54.364;18.582;2022-11-15T02:12:58;87.88;;;32.85;;
48363;SDS011;34170;54.364;18.582;2022-11-15T02:15:52;86.43;;;33.60;;
48363;SDS011;34170;54.364;18.582;2022-11-15T02:18:52;89.30;;;33.40;;
48363;SDS011;34170;54.364;18.582;2022-11-15T02:21:47;93.55;;;35.05;;
48363;SDS011;34170;54.364;18.582;2022-11-15T02:31:25;71.18;;;28.98;;
48363;SDS011;34170;54.364;18.582;2022-11-15T02:34:31;74.10;;;30.30;;
48363;SDS011;34170;54.364;18.582;2022-11-15T02:43:48;76.43;;;29.65;;
48363;SDS011;34170;54.364;18.582;2022-11-15T02:46:43;76.50;;;30.67;;
48363;SDS011;34170;54.364;18.582;2022-11-15T02:49:54;68.90;;;29.38;;
48363;SDS011;34170;54.364;18.582;2022-11-15T02:52:46;69.07;;;29.10;;
48363;SDS011;34170;54.364;18.582;2022-11-15T02:55:44;61.10;;;23.42;;
48363;SDS011;34170;54.364;18.582;2022-11-15T03:01:53;82.47;;;31.83;;
48363;SDS011;34170;54.364;18.582;2022-11-15T03:14:08;97.57;;;35.28;;
48363;SDS011;34170;54.364;18.582;2022-11-15T03:20:01;91.05;;;36.00;;
48363;SDS011;34170;54.364;18.582;2022-11-15T03:22:49;96.88;;;36.63;;
48363;SDS011;34170;54.364;18.582;2022-11-15T03:25:38;98.13;;;35.92;;
48363;SDS011;34170;54.364;18.582;2022-11-15T03:31:19;95.85;;;33.85;;
48363;SDS011;34170;54.364;18.582;2022-11-15T03:34:39;98.93;;;36.25;;
48363;SDS011;34170;54.364;18.582;2022-11-15T03:37:33;101.65;;;35.83;;
48363;SDS011;34170;54.364;18.582;2022-11-15T03:41:00;100.63;;;35.63;;
48363;SDS011;34170;54.364;18.582;2022-11-15T03:50:02;104.07;;;35.85;;
48363;SDS011;34170;54.364;18.582;2022-11-15T03:52:55;100.32;;;35.28;;
48363;SDS011;34170;54.364;18.582;2022-11-15T03:55:42;111.38;;;39.72;;
48363;SDS011;34170;54.364;18.582;2022-11-15T03:58:28;104.47;;;36.00;;
48363;SDS011;34170;54.364;18.582;2022-11-15T04:01:14;116.35;;;38.92;;
48363;SDS011;34170;54.364;18.582;2022-11-15T04:03:59;104.57;;;35.97;;
48363;SDS011;34170;54.364;18.582;2022-11-15T04:06:46;103.40;;;35.63;;
48363;SDS011;34170;54.364;18.582;2022-11-15T04:09:32;108.93;;;38.25;;
48363;SDS011;34170;54.364;18.582;2022-11-15T04:12:18;94.85;;;34.75;;
48363;SDS011;34170;54.364;18.582;2022-11-15T04:15:20;98.50;;;34.35;;
48363;SDS011;34170;54.364;18.582;2022-11-15T04:18:07;94.30;;;33.85;;
48363;SDS011;34170;54.364;18.582;2022-11-15T04:20:53;92.30;;;34.35;;
48363;SDS011;34170;54.364;18.582;2022-11-15T04:23:58;91.80;;;32.85;;
48363;SDS011;34170;54.364;18.582;2022-11-15T04:26:50;92.90;;;33.97;;
48363;SDS011;34170;54.364;18.582;2022-11-15T04:29:36;85.82;;;32.17;;
48363;SDS011;34170;54.364;18.582;2022-11-15T04:32:21;89.18;;;32.85;;
48363;SDS011;34170;54.364;18.582;2022-11-15T04:35:08;82.72;;;30.55;;
48363;SDS011;34170;54.364;18.582;2022-11-15T04:37:54;78.80;;;29.25;;
48363;SDS011;34170;54.364;18.582;2022-11-15T04:40:40;78.28;;;29.48;;
48363;SDS011;34170;54.364;18.582;2022-11-15T04:43:26;80.78;;;30.42;;
48363;SDS011;34170;54.364;18.582;2022-11-15T04:46:12;75.93;;;27.55;;
48363;SDS011;34170;54.364;18.582;2022-11-15T04:48:58;75.22;;;29.40;;
48363;SDS011;34170;54.364;18.582;2022-11-15T04:51:44;69.28;;;27.55;;
48363;SDS011;34170;54.364;18.582;2022-11-15T04:54:29;77.15;;;28.95;;
48363;SDS011;34170;54.364;18.582;2022-11-15T04:57:15;67.82;;;26.10;;
48363;SDS011;34170;54.364;18.582;2022-11-15T05:00:05;66.65;;;27.55;;
48363;SDS011;34170;54.364;18.582;2022-11-15T05:02:53;66.22;;;26.70;;
48363;SDS011;34170;54.364;18.582;2022-11-15T05:05:58;62.55;;;25.27;;
48363;SDS011;34170;54.364;18.582;2022-11-15T05:08:44;56.83;;;24.45;;
48363;SDS011;34170;54.364;18.582;2022-11-15T05:11:30;60.47;;;24.08;;
48363;SDS011;34170;54.364;18.582;2022-11-15T05:14:16;63.92;;;25.20;;
48363;SDS011;34170;54.364;18.582;2022-11-15T05:17:02;57.60;;;25.05;;
48363;SDS011;34170;54.364;18.582;2022-11-15T05:19:48;55.17;;;22.98;;
48363;SDS011;34170;54.364;18.582;2022-11-15T05:22:34;55.00;;;22.58;;
48363;SDS011;34170;54.364;18.582;2022-11-15T05:25:20;55.65;;;24.13;;
48363;SDS011;34170;54.364;18.582;2022-11-15T05:28:05;57.53;;;24.92;;
48363;SDS011;34170;54.364;18.582;2022-11-15T05:30:51;53.33;;;21.73;;
48363;SDS011;34170;54.364;18.582;2022-11-15T05:33:37;56.30;;;24.05;;
48363;SDS011;34170;54.364;18.582;2022-11-15T05:36:26;55.33;;;23.20;;
48363;SDS011;34170;54.364;18.582;2022-11-15T05:39:22;57.75;;;23.20;;
48363;SDS011;34170;54.364;18.582;2022-11-15T05:42:12;52.03;;;23.42;;
48363;SDS011;34170;54.364;18.582;2022-11-15T05:44:59;42.42;;;18.13;;
48363;SDS011;34170;54.364;18.582;2022-11-15T05:47:51;42.35;;;19.65;;
48363;SDS011;34170;54.364;18.582;2022-11-15T05:50:41;53.95;;;22.63;;
48363;SDS011;34170;54.364;18.582;2022-11-15T05:53:30;56.95;;;23.42;;
48363;SDS011;34170;54.364;18.582;2022-11-15T05:56:17;55.20;;;23.52;;
48363;SDS011;34170;54.364;18.582;2022-11-15T05:59:03;53.72;;;22.65;;
48363;SDS011;34170;54.364;18.582;2022-11-15T06:01:49;52.40;;;22.73;;
48363;SDS011;34170;54.364;18.582;2022-11-15T06:04:35;56.65;;;23.98;;
48363;SDS011;34170;54.364;18.582;2022-11-15T06:07:21;55.83;;;23.25;;
48363;SDS011;34170;54.364;18.582;2022-11-15T06:10:08;54.00;;;24.38;;
48363;SDS011;34170;54.364;18.582;2022-11-15T06:13:01;57.17;;;23.50;;
48363;SDS011;34170;54.364;18.582;2022-11-15T06:15:48;61.55;;;23.40;;
48363;SDS011;34170;54.364;18.582;2022-11-15T06:18:34;59.80;;;23.92;;
48363;SDS011;34170;54.364;18.582;2022-11-15T06:21:21;58.20;;;24.70;;
48363;SDS011;34170;54.364;18.582;2022-11-15T06:24:07;54.65;;;23.58;;
48363;SDS011;34170;54.364;18.582;2022-11-15T06:26:53;58.45;;;23.25;;
48363;SDS011;34170;54.364;18.582;2022-11-15T06:29:39;58.58;;;24.10;;
48363;SDS011;34170;54.364;18.582;2022-11-15T06:32:25;63.00;;;25.00;;
48363;SDS011;34170;54.364;18.582;2022-11-15T06:35:11;55.40;;;23.67;;
48363;SDS011;34170;54.364;18.582;2022-11-15T06:38:01;59.70;;;25.05;;
48363;SDS011;34170;54.364;18.582;2022-11-15T06:40:48;52.55;;;23.25;;
48363;SDS011;34170;54.364;18.582;2022-11-15T06:43:34;50.45;;;21.75;;
48363;SDS011;34170;54.364;18.582;2022-11-15T06:46:20;54.00;;;23.33;;
48363;SDS011;34170;54.364;18.582;2022-11-15T06:49:06;52.95;;;23.42;;
48363;SDS011;34170;54.364;18.582;2022-11-15T06:51:54;53.35;;;23.08;;
48363;SDS011;34170;54.364;18.582;2022-11-15T06:54:40;53.15;;;22.73;;
48363;SDS011;34170;54.364;18.582;2022-11-15T06:57:25;51.63;;;22.70;;
48363;SDS011;34170;54.364;18.582;2022-11-15T07:00:12;52.28;;;22.58;;
48363;SDS011;34170;54.364;18.582;2022-11-15T07:03:01;51.08;;;21.60;;
48363;SDS011;34170;54.364;18.582;2022-11-15T07:05:51;49.95;;;22.98;;
48363;SDS011;34170;54.364;18.582;2022-11-15T07:08:41;47.85;;;21.48;;
48363;SDS011;34170;54.364;18.582;2022-11-15T07:11:27;46.33;;;21.60;;
48363;SDS011;34170;54.364;18.582;2022-11-15T07:14:13;50.13;;;22.70;;
48363;SDS011;34170;54.364;18.582;2022-11-15T07:16:59;45.50;;;20.77;;
48363;SDS011;34170;54.364;18.582;2022-11-15T07:19:45;42.90;;;20.58;;
48363;SDS011;34170;54.364;18.582;2022-11-15T07:22:31;37.67;;;18.25;;
48363;SDS011;34170;54.364;18.582;2022-11-15T07:25:17;41.13;;;19.60;;
48363;SDS011;34170;54.364;18.582;2022-11-15T07:28:04;41.97;;;19.88;;
48363;SDS011;34170;54.364;18.582;2022-11-15T07:30:50;43.67;;;19.73;;
48363;SDS011;34170;54.364;18.582;2022-11-15T07:33:36;43.22;;;19.65;;
48363;SDS011;34170;54.364;18.582;2022-11-15T07:36:22;41.22;;;19.88;;
48363;SDS011;34170;54.364;18.582;2022-11-15T07:39:08;44.25;;;19.67;;
48363;SDS011;34170;54.364;18.582;2022-11-15T07:41:55;44.13;;;19.17;;
48363;SDS011;34170;54.364;18.582;2022-11-15T07:45:01;44.67;;;20.10;;
48363;SDS011;34170;54.364;18.582;2022-11-15T07:47:50;49.13;;;21.60;;
48363;SDS011;34170;54.364;18.582;2022-11-15T07:50:37;47.47;;;20.80;;
48363;SDS011;34170;54.364;18.582;2022-11-15T07:53:26;48.15;;;20.65;;
48363;SDS011;34170;54.364;18.582;2022-11-15T07:56:12;45.55;;;20.60;;
48363;SDS011;34170;54.364;18.582;2022-11-15T07:58:58;46.92;;;20.73;;
48363;SDS011;34170;54.364;18.582;2022-11-15T08:01:45;48.97;;;22.13;;
48363;SDS011;34170;54.364;18.582;2022-11-15T08:04:30;41.30;;;20.40;;
48363;SDS011;34170;54.364;18.582;2022-11-15T08:07:16;50.22;;;21.90;;
48363;SDS011;34170;54.364;18.582;2022-11-15T08:10:02;44.20;;;21.05;;
48363;SDS011;34170;54.364;18.582;2022-11-15T08:12:56;43.00;;;19.77;;
48363;SDS011;34170;54.364;18.582;2022-11-15T08:15:43;43.35;;;20.58;;
48363;SDS011;34170;54.364;18.582;2022-11-15T08:18:29;49.30;;;21.35;;
48363;SDS011;34170;54.364;18.582;2022-11-15T08:21:17;45.55;;;20.55;;
48363;SDS011;34170;54.364;18.582;2022-11-15T08:24:05;48.88;;;21.27;;
48363;SDS011;34170;54.364;18.582;2022-11-15T08:26:53;48.90;;;21.13;;
48363;SDS011;34170;54.364;18.582;2022-11-15T08:29:40;49.13;;;20.50;;
48363;SDS011;34170;54.364;18.582;2022-11-15T08:32:30;48.03;;;20.40;;
48363;SDS011;34170;54.364;18.582;2022-11-15T08:35:17;47.78;;;20.98;;
48363;SDS011;34170;54.364;18.582;2022-11-15T08:38:09;47.45;;;21.42;;
48363;SDS011;34170;54.364;18.582;2022-11-15T08:40:59;46.60;;;21.02;;
48363;SDS011;34170;54.364;18.582;2022-11-15T08:43:47;45.50;;;20.98;;
48363;SDS011;34170;54.364;18.582;2022-11-15T08:46:33;49.55;;;21.33;;
48363;SDS011;34170;54.364;18.582;2022-11-15T08:49:19;45.92;;;21.50;;
48363;SDS011;34170;54.364;18.582;2022-11-15T08:52:05;51.00;;;23.55;;
48363;SDS011;34170;54.364;18.582;2022-11-15T08:54:51;49.33;;;21.80;;
48363;SDS011;34170;54.364;18.582;2022-11-15T08:57:37;49.30;;;21.95;;
48363;SDS011;34170;54.364;18.582;2022-11-15T09:00:23;51.95;;;22.63;;
48363;SDS011;34170;54.364;18.582;2022-11-15T09:03:09;53.85;;;22.80;;
48363;SDS011;34170;54.364;18.582;2022-11-15T09:05:59;52.42;;;23.13;;
48363;SDS011;34170;54.364;18.582;2022-11-15T09:08:46;54.72;;;23.17;;
48363;SDS011;34170;54.364;18.582;2022-11-15T09:11:33;54.38;;;22.67;;
48363;SDS011;34170;54.364;18.582;2022-11-15T09:14:19;51.92;;;22.55;;
48363;SDS011;34170;54.364;18.582;2022-11-15T09:17:07;54.95;;;23.80;;
48363;SDS011;34170;54.364;18.582;2022-11-15T09:19:54;52.58;;;23.10;;
48363;SDS011;34170;54.364;18.582;2022-11-15T09:22:40;55.22;;;23.73;;
48363;SDS011;34170;54.364;18.582;2022-11-15T09:25:26;49.67;;;22.20;;
48363;SDS011;34170;54.364;18.582;2022-11-15T09:28:14;48.88;;;21.05;;
48363;SDS011;34170;54.364;18.582;2022-11-15T09:31:02;52.83;;;23.33;;
48363;SDS011;34170;54.364;18.582;2022-11-15T09:33:49;54.17;;;24.10;;
48363;SDS011;34170;54.364;18.582;2022-11-15T09:36:35;49.30;;;21.67;;
48363;SDS011;34170;54.364;18.582;2022-11-15T09:39:21;50.05;;;23.05;;
48363;SDS011;34170;54.364;18.582;2022-11-15T09:45:15;46.63;;;21.65;;
48363;SDS011;34170;54.364;18.582;2022-11-15T09:51:30;44.20;;;20.92;;
48363;SDS011;34170;54.364;18.582;2022-11-15T09:57:32;48.67;;;22.95;;
48363;SDS011;34170;54.364;18.582;2022-11-15T10:03:46;50.05;;;22.63;;
48363;SDS011;34170;54.364;18.582;2022-11-15T10:06:10;48.40;;;22.13;;
48363;SDS011;34170;54.364;18.582;2022-11-15T10:11:50;44.53;;;21.77;;
48363;SDS011;34170;54.364;18.582;2022-11-15T10:14:18;43.38;;;20.27;;
48363;SDS011;34170;54.364;18.582;2022-11-15T10:20:05;39.95;;;19.17;;
48363;SDS011;34170;54.364;18.582;2022-11-15T10:23:14;40.10;;;18.58;;
48363;SDS011;34170;54.364;18.582;2022-11-15T10:25:36;39.55;;;18.67;;
48363;SDS011;34170;54.364;18.582;2022-11-15T10:31:00;42.83;;;20.70;;
48363;SDS011;34170;54.364;18.582;2022-11-15T10:33:35;39.47;;;18.75;;
48363;SDS011;34170;54.364;18.582;2022-11-15T10:46:37;38.35;;;19.73;;
48363;SDS011;34170;54.364;18.582;2022-11-15T10:49:15;36.50;;;17.75;;
48363;SDS011;34170;54.364;18.582;2022-11-15T10:57:27;29.80;;;16.35;;
48363;SDS011;34170;54.364;18.582;2022-11-15T10:59:59;32.58;;;16.05;;
48363;SDS011;34170;54.364;18.582;2022-11-15T11:04:56;30.48;;;16.20;;
48363;SDS011;34170;54.364;18.582;2022-11-15T11:07:25;34.17;;;16.58;;
48363;SDS011;34170;54.364;18.582;2022-11-15T11:09:56;33.65;;;17.48;;
48363;SDS011;34170;54.364;18.582;2022-11-15T11:12:52;31.73;;;16.23;;
48363;SDS011;34170;54.364;18.582;2022-11-15T11:15:20;33.70;;;16.52;;
48363;SDS011;34170;54.364;18.582;2022-11-15T11:20:40;37.47;;;18.52;;
48363;SDS011;34170;54.364;18.582;2022-11-15T11:29:30;36.90;;;19.20;;
48363;SDS011;34170;54.364;18.582;2022-11-15T11:32:20;43.20;;;20.83;;
48363;SDS011;34170;54.364;18.582;2022-11-15T11:35:21;38.60;;;18.85;;
48363;SDS011;34170;54.364;18.582;2022-11-15T11:37:55;38.35;;;18.80;;
48363;SDS011;34170;54.364;18.582;2022-11-15T11:44:06;40.97;;;19.25;;
48363;SDS011;34170;54.364;18.582;2022-11-15T11:47:01;43.33;;;20.80;;
48363;SDS011;34170;54.364;18.582;2022-11-15T11:49:50;39.20;;;19.13;;
48363;SDS011;34170;54.364;18.582;2022-11-15T12:00:30;45.13;;;20.60;;
48363;SDS011;34170;54.364;18.582;2022-11-15T12:06:19;48.60;;;21.52;;
48363;SDS011;34170;54.364;18.582;2022-11-15T12:08:55;55.47;;;23.17;;
48363;SDS011;34170;54.364;18.582;2022-11-15T12:14:28;62.13;;;25.55;;
48363;SDS011;34170;54.364;18.582;2022-11-15T12:17:08;50.95;;;21.75;;
48363;SDS011;34170;54.364;18.582;2022-11-15T12:19:38;54.63;;;24.40;;
48363;SDS011;34170;54.364;18.582;2022-11-15T12:25:16;61.63;;;25.80;;
48363;SDS011;34170;54.364;18.582;2022-11-15T12:27:50;57.67;;;24.70;;
48363;SDS011;34170;54.364;18.582;2022-11-15T12:30:24;64.70;;;24.90;;
48363;SDS011;34170;54.364;18.582;2022-11-15T12:35:57;66.20;;;27.02;;
48363;SDS011;34170;54.364;18.582;2022-11-15T12:41:33;69.00;;;27.63;;
48363;SDS011;34170;54.364;18.582;2022-11-15T12:44:02;67.43;;;28.65;;
48363;SDS011;34170;54.364;18.582;2022-11-15T12:48:59;66.22;;;27.83;;
48363;SDS011;34170;54.364;18.582;2022-11-15T13:04:55;77.28;;;33.13;;
48363;SDS011;34170;54.364;18.582;2022-11-15T13:17:50;77.40;;;31.23;;
48363;SDS011;34170;54.364;18.582;2022-11-15T13:20:20;70.00;;;28.15;;
48363;SDS011;34170;54.364;18.582;2022-11-15T13:28:03;78.90;;;33.10;;
48363;SDS011;34170;54.364;18.582;2022-11-15T13:30:37;103.85;;;39.42;;
48363;SDS011;34170;54.364;18.582;2022-11-15T13:33:08;105.13;;;38.72;;
48363;SDS011;34170;54.364;18.582;2022-11-15T13:35:42;101.70;;;38.20;;
48363;SDS011;34170;54.364;18.582;2022-11-15T13:40:47;98.85;;;36.58;;
48363;SDS011;34170;54.364;18.582;2022-11-15T13:46:09;92.95;;;37.67;;
48363;SDS011;34170;54.364;18.582;2022-11-15T13:48:43;99.15;;;35.97;;
48363;SDS011;34170;54.364;18.582;2022-11-15T13:53:50;103.30;;;36.20;;
48363;SDS011;34170;54.364;18.582;2022-11-15T13:56:44;98.20;;;33.33;;
48363;SDS011;34170;54.364;18.582;2022-11-15T13:59:25;89.40;;;31.83;;
48363;SDS011;34170;54.364;18.582;2022-11-15T14:01:56;88.45;;;31.80;;
48363;SDS011;34170;54.364;18.582;2022-11-15T14:04:28;89.93;;;31.33;;
48363;SDS011;34170;54.364;18.582;2022-11-15T14:07:00;98.68;;;34.10;;
48363;SDS011;34170;54.364;18.582;2022-11-15T14:09:33;87.97;;;30.27;;
48363;SDS011;34170;54.364;18.582;2022-11-15T14:15:18;79.95;;;28.88;;
48363;SDS011;34170;54.364;18.582;2022-11-15T14:17:53;76.75;;;27.33;;
48363;SDS011;34170;54.364;18.582;2022-11-15T14:20:32;62.72;;;25.10;;
48363;SDS011;34170;54.364;18.582;2022-11-15T14:23:19;92.18;;;33.15;;
48363;SDS011;34170;54.364;18.582;2022-11-15T14:25:55;84.35;;;27.30;;
48363;SDS011;34170;54.364;18.582;2022-11-15T14:30:53;71.00;;;25.27;;
48363;SDS011;34170;54.364;18.582;2022-11-15T14:38:32;83.70;;;26.58;;
48363;SDS011;34170;54.364;18.582;2022-11-15T14:41:00;74.95;;;27.88;;
48363;SDS011;34170;54.364;18.582;2022-11-15T14:43:28;79.68;;;27.63;;
48363;SDS011;34170;54.364;18.582;2022-11-15T14:45:55;66.95;;;25.00;;
48363;SDS011;34170;54.364;18.582;2022-11-15T14:48:23;79.57;;;26.20;;
48363;SDS011;34170;54.364;18.582;2022-11-15T14:50:50;79.72;;;27.38;;
48363;SDS011;34170;54.364;18.582;2022-11-15T14:53:17;79.30;;;26.58;;
48363;SDS011;34170;54.364;18.582;2022-11-15T14:55:46;86.30;;;26.08;;
48363;SDS011;34170;54.364;18.582;2022-11-15T14:58:14;77.85;;;26.10;;
48363;SDS011;34170;54.364;18.582;2022-11-15T15:00:41;72.75;;;25.02;;
48363;SDS011;34170;54.364;18.582;2022-11-15T15:03:09;76.95;;;27.23;;
48363;SDS011;34170;54.364;18.582;2022-11-15T15:05:41;90.53;;;35.33;;
48363;SDS011;34170;54.364;18.582;2022-11-15T15:08:10;75.40;;;25.83;;
48363;SDS011;34170;54.364;18.582;2022-11-15T15:10:39;76.80;;;24.58;;
48363;SDS011;34170;54.364;18.582;2022-11-15T15:13:19;72.80;;;24.67;;
48363;SDS011;34170;54.364;18.582;2022-11-15T15:15:48;73.03;;;26.55;;
48363;SDS011;34170;54.364;18.582;2022-11-15T15:18:17;74.07;;;26.98;;
48363;SDS011;34170;54.364;18.582;2022-11-15T15:20:49;72.63;;;25.45;;
48363;SDS011;34170;54.364;18.582;2022-11-15T15:23:27;70.65;;;24.00;;
48363;SDS011;34170;54.364;18.582;2022-11-15T15:25:57;61.20;;;23.10;;
48363;SDS011;34170;54.364;18.582;2022-11-15T15:28:25;61.30;;;22.55;;
48363;SDS011;34170;54.364;18.582;2022-11-15T15:31:00;60.60;;;22.45;;
48363;SDS011;34170;54.364;18.582;2022-11-15T15:33:28;64.22;;;24.58;;
48363;SDS011;34170;54.364;18.582;2022-11-15T15:35:55;60.58;;;24.80;;
48363;SDS011;34170;54.364;18.582;2022-11-15T15:38:22;61.28;;;23.13;;
48363;SDS011;34170;54.364;18.582;2022-11-15T15:40:50;58.03;;;22.80;;
48363;SDS011;34170;54.364;18.582;2022-11-15T15:43:17;61.65;;;23.13;;
48363;SDS011;34170;54.364;18.582;2022-11-15T15:45:45;53.00;;;21.27;;
48363;SDS011;34170;54.364;18.582;2022-11-15T15:48:13;61.97;;;24.13;;
48363;SDS011;34170;54.364;18.582;2022-11-15T15:50:42;55.55;;;22.85;;
48363;SDS011;34170;54.364;18.582;2022-11-15T15:53:10;117.75;;;51.15;;
48363;SDS011;34170;54.364;18.582;2022-11-15T15:55:39;61.53;;;23.50;;
48363;SDS011;34170;54.364;18.582;2022-11-15T15:58:07;56.63;;;23.10;;
48363;SDS011;34170;54.364;18.582;2022-11-15T16:00:35;65.63;;;23.67;;
48363;SDS011;34170;54.364;18.582;2022-11-15T16:03:03;68.40;;;24.60;;
48363;SDS011;34170;54.364;18.582;2022-11-15T16:05:30;66.43;;;24.70;;
48363;SDS011;34170;54.364;18.582;2022-11-15T16:07:57;60.10;;;24.40;;
48363;SDS011;34170;54.364;18.582;2022-11-15T16:10:26;57.35;;;23.60;;
48363;SDS011;34170;54.364;18.582;2022-11-15T16:12:54;59.35;;;24.13;;
48363;SDS011;34170;54.364;18.582;2022-11-15T16:15:23;61.45;;;22.52;;
48363;SDS011;34170;54.364;18.582;2022-11-15T16:17:53;53.08;;;22.77;;
48363;SDS011;34170;54.364;18.582;2022-11-15T16:20:23;52.20;;;22.67;;
48363;SDS011;34170;54.364;18.582;2022-11-15T16:22:51;57.58;;;24.60;;
48363;SDS011;34170;54.364;18.582;2022-11-15T16:25:18;61.65;;;25.65;;
48363;SDS011;34170;54.364;18.582;2022-11-15T16:27:45;66.82;;;28.27;;
48363;SDS011;34170;54.364;18.582;2022-11-15T16:30:14;59.65;;;25.73;;
48363;SDS011;34170;54.364;18.582;2022-11-15T16:32:43;56.95;;;24.20;;
48363;SDS011;34170;54.364;18.582;2022-11-15T16:35:10;55.72;;;24.88;;
48363;SDS011;34170;54.364;18.582;2022-11-15T16:37:41;53.50;;;22.23;;
48363;SDS011;34170;54.364;18.582;2022-11-15T16:42:51;50.92;;;21.50;;
48363;SDS011;34170;54.364;18.582;2022-11-15T16:45:18;47.80;;;20.77;;
48363;SDS011;34170;54.364;18.582;2022-11-15T16:47:46;51.95;;;23.08;;
48363;SDS011;34170;54.364;18.582;2022-11-15T16:50:18;46.83;;;21.20;;
48363;SDS011;34170;54.364;18.582;2022-11-15T16:52:52;49.00;;;21.63;;
48363;SDS011;34170;54.364;18.582;2022-11-15T16:55:21;53.08;;;22.98;;
48363;SDS011;34170;54.364;18.582;2022-11-15T16:57:51;46.90;;;22.02;;
48363;SDS011;34170;54.364;18.582;2022-11-15T17:00:18;46.88;;;21.20;;
48363;SDS011;34170;54.364;18.582;2022-11-15T17:02:47;48.40;;;20.98;;
48363;SDS011;34170;54.364;18.582;2022-11-15T17:05:16;42.63;;;20.65;;
48363;SDS011;34170;54.364;18.582;2022-11-15T17:07:48;48.50;;;21.58;;
48363;SDS011;34170;54.364;18.582;2022-11-15T17:10:16;44.90;;;19.63;;
48363;SDS011;34170;54.364;18.582;2022-11-15T17:12:44;39.97;;;18.25;;
48363;SDS011;34170;54.364;18.582;2022-11-15T17:15:12;47.53;;;21.45;;
48363;SDS011;34170;54.364;18.582;2022-11-15T17:17:40;45.80;;;20.73;;
48363;SDS011;34170;54.364;18.582;2022-11-15T17:20:13;48.50;;;21.42;;
48363;SDS011;34170;54.364;18.582;2022-11-15T17:22:42;49.05;;;21.65;;
48363;SDS011;34170;54.364;18.582;2022-11-15T17:25:09;48.97;;;21.85;;
48363;SDS011;34170;54.364;18.582;2022-11-15T17:27:37;45.50;;;21.67;;
48363;SDS011;34170;54.364;18.582;2022-11-15T17:30:05;46.38;;;21.50;;
48363;SDS011;34170;54.364;18.582;2022-11-15T17:32:36;52.88;;;23.85;;
48363;SDS011;34170;54.364;18.582;2022-11-15T17:35:04;51.00;;;23.67;;
48363;SDS011;34170;54.364;18.582;2022-11-15T17:37:41;51.55;;;23.98;;
48363;SDS011;34170;54.364;18.582;2022-11-15T17:40:09;57.53;;;23.75;;
48363;SDS011;34170;54.364;18.582;2022-11-15T17:42:39;57.15;;;24.75;;
48363;SDS011;34170;54.364;18.582;2022-11-15T17:45:07;55.80;;;24.45;;
48363;SDS011;34170;54.364;18.582;2022-11-15T17:47:36;52.58;;;23.75;;
48363;SDS011;34170;54.364;18.582;2022-11-15T17:50:04;46.78;;;22.52;;
48363;SDS011;34170;54.364;18.582;2022-11-15T17:52:31;50.30;;;23.00;;
48363;SDS011;34170;54.364;18.582;2022-11-15T17:54:59;50.35;;;23.58;;
48363;SDS011;34170;54.364;18.582;2022-11-15T17:57:26;52.85;;;22.60;;
48363;SDS011;34170;54.364;18.582;2022-11-15T17:59:53;50.20;;;22.02;;
48363;SDS011;34170;54.364;18.582;2022-11-15T18:02:21;49.00;;;22.27;;
48363;SDS011;34170;54.364;18.582;2022-11-15T18:04:48;46.47;;;22.15;;
48363;SDS011;34170;54.364;18.582;2022-11-15T18:07:16;47.58;;;21.42;;
48363;SDS011;34170;54.364;18.582;2022-11-15T18:09:43;43.92;;;22.10;;
48363;SDS011;34170;54.364;18.582;2022-11-15T18:12:11;47.47;;;21.70;;
48363;SDS011;34170;54.364;18.582;2022-11-15T18:14:38;47.63;;;21.58;;
48363;SDS011;34170;54.364;18.582;2022-11-15T18:17:06;50.38;;;22.67;;